Terminal Aerodrome Forecast
Issued by NWS

Home | Current Version | Previous Version | Text Only | Print | Product List | Glossary On
Versions: 1 2 3 4 5 6 7 8 9 10 11 12 13 14
187
FTUS42 KTAE 271127 CCA
TAFDHN
TAF COR
KDHN 271127Z 2712/2812 00000KT P6SM SKC
      TEMPO 2712/2714 2SM BR SCT002
     FM271500 27004KT P6SM SCT040 BKN250=

USA.gov is the U.S. government's official web portal to all federal, state and local government web resources and services.